createdAt,value
2019-02-05T00:01:42.997Z,86.56
2019-02-05T00:04:12.040Z,86.74
2019-02-05T00:06:41.165Z,86.69
2019-02-05T00:09:11.578Z,86.45
2019-02-05T00:11:40.651Z,86.49
2019-02-05T00:14:09.740Z,86.50
2019-02-05T00:16:39.251Z,86.42
2019-02-05T00:19:08.311Z,85.29
2019-02-05T00:21:37.406Z,85.30
2019-02-05T00:24:06.470Z,85.15
2019-02-05T00:26:35.577Z,85.53
2019-02-05T00:29:04.655Z,85.30
2019-02-05T00:31:34.220Z,85.45
2019-02-05T00:34:03.860Z,84.94
2019-02-05T00:36:32.935Z,85.40
2019-02-05T00:39:01.977Z,85.70
2019-02-05T00:41:31.147Z,86.01
2019-02-05T00:44:00.222Z,86.31
2019-02-05T00:46:29.648Z,86.70
2019-02-05T00:48:58.722Z,87.48
2019-02-05T00:51:27.828Z,86.83
2019-02-05T00:53:56.915Z,86.85
2019-02-05T00:56:25.979Z,86.52
2019-02-05T00:58:55.094Z,86.51
2019-02-05T01:01:24.569Z,86.84
2019-02-05T01:03:53.673Z,86.28
2019-02-05T01:06:22.759Z,85.78
2019-02-05T01:08:51.858Z,85.47
2019-02-05T01:11:20.961Z,85.40
2019-02-05T01:13:50.072Z,85.34
2019-02-05T01:16:19.596Z,85.19
2019-02-05T01:18:48.677Z,85.55
2019-02-05T01:21:17.758Z,85.70
2019-02-05T01:23:46.826Z,86.59
2019-02-05T01:26:15.882Z,86.57
2019-02-05T01:28:44.926Z,86.57
2019-02-05T01:31:14.406Z,86.50
2019-02-05T01:33:43.473Z,86.75
2019-02-05T01:36:12.556Z,86.02
2019-02-05T01:38:41.651Z,86.19
2019-02-05T01:41:10.763Z,87.48
2019-02-05T01:43:39.834Z,87.38
2019-02-05T01:46:09.478Z,87.31
2019-02-05T01:48:38.543Z,87.23
2019-02-05T01:51:07.652Z,87.07
2019-02-05T01:53:36.719Z,87.01
2019-02-05T01:56:05.786Z,87.20
2019-02-05T01:58:34.904Z,87.38
2019-02-05T02:01:06.143Z,86.88
2019-02-05T02:03:35.192Z,87.33
2019-02-05T02:06:04.290Z,87.31
2019-02-05T02:08:33.333Z,87.44
2019-02-05T02:11:02.407Z,87.50
2019-02-05T02:13:31.469Z,87.74
2019-02-05T02:16:04.262Z,87.25
2019-02-05T02:18:33.316Z,87.60
2019-02-05T02:21:02.388Z,87.55
2019-02-05T02:23:31.698Z,87.68
2019-02-05T02:26:00.795Z,87.74
2019-02-05T02:28:29.880Z,87.59
2019-02-05T02:30:59.199Z,88.06
2019-02-05T02:33:28.227Z,87.74
2019-02-05T02:40:32.085Z,87.31
2019-02-05T02:43:31.202Z,87.34
2019-02-05T02:46:33.799Z,87.07
2019-02-05T02:53:32.239Z,87.09
2019-02-05T03:00:30.600Z,86.95
2019-02-05T03:09:34.189Z,87.22
2019-02-05T03:21:33.526Z,87.05
2019-02-05T03:24:32.910Z,86.86
2019-02-05T03:27:32.531Z,86.97
2019-02-05T03:30:31.790Z,86.93
2019-02-05T03:33:34.187Z,86.76
2019-02-05T03:36:30.408Z,86.92
2019-02-05T03:39:29.397Z,87.24
2019-02-05T03:42:31.903Z,86.77
2019-02-05T03:45:34.080Z,86.95
2019-02-05T03:57:32.649Z,86.62
2019-02-05T04:04:31.768Z,86.58
2019-02-05T04:07:32.031Z,87.07
2019-02-05T04:11:29.271Z,86.58
2019-02-05T04:15:29.567Z,86.72
2019-02-05T04:22:31.017Z,86.73
2019-02-05T04:25:53.283Z,86.52
2019-02-05T04:28:55.546Z,86.81
2019-02-05T04:31:54.262Z,86.77
2019-02-05T04:35:12.902Z,86.61
2019-02-05T04:38:14.095Z,86.50
2019-02-05T04:41:26.487Z,86.36
2019-02-05T04:44:27.527Z,86.11
2019-02-05T04:47:25.169Z,86.01
2019-02-05T04:50:27.103Z,86.23
2019-02-05T04:53:37.418Z,85.99
2019-02-05T04:56:35.004Z,86.42
2019-02-05T04:59:34.623Z,86.09
2019-02-05T05:03:03.481Z,85.99
2019-02-05T05:05:55.902Z,86.05
2019-02-05T05:08:56.163Z,85.57
2019-02-05T05:11:25.260Z,85.95
2019-02-05T05:13:54.310Z,86.28
2019-02-05T05:16:23.396Z,86.14
2019-02-05T05:18:52.482Z,85.54
2019-02-05T05:21:21.569Z,85.72
2019-02-05T05:23:50.754Z,85.82
2019-02-05T05:26:19.856Z,86.06
2019-02-05T05:28:48.901Z,86.23
2019-02-05T05:31:18.026Z,85.87
2019-02-05T05:33:47.073Z,85.82
2019-02-05T05:36:16.307Z,85.69
2019-02-05T05:38:45.481Z,85.91
2019-02-05T05:41:14.578Z,86.39
2019-02-05T05:43:43.735Z,86.63
2019-02-05T05:46:12.841Z,86.06
2019-02-05T05:48:41.959Z,86.15
2019-02-05T05:51:11.037Z,86.19
2019-02-05T05:53:40.249Z,86.14
2019-02-05T05:56:09.343Z,86.41
2019-02-05T05:58:39.213Z,86.68
2019-02-05T06:01:08.283Z,86.89
2019-02-05T06:03:37.494Z,86.74
2019-02-05T06:06:06.662Z,86.48
2019-02-05T06:08:35.743Z,86.89
2019-02-05T06:11:04.807Z,86.77
2019-02-05T06:13:33.874Z,86.45
2019-02-05T06:16:02.923Z,86.44
2019-02-05T06:18:32.027Z,86.82
2019-02-05T06:21:01.074Z,86.67
2019-02-05T06:23:30.186Z,86.75
2019-02-05T06:25:59.251Z,86.81
2019-02-05T06:28:34.742Z,86.77
2019-02-05T06:30:59.407Z,86.65
2019-02-05T06:33:28.739Z,86.84
2019-02-05T06:35:57.820Z,86.37
2019-02-05T06:38:26.992Z,86.59
2019-02-05T06:40:56.124Z,86.90
2019-02-05T06:43:25.253Z,87.18
2019-02-05T06:45:54.548Z,87.28
2019-02-05T06:48:25.210Z,87.21
2019-02-05T06:50:56.833Z,86.91
2019-02-05T06:53:25.130Z,86.60
2019-02-05T06:55:54.221Z,86.65
2019-02-05T06:58:25.744Z,86.90
2019-02-05T07:00:54.859Z,86.77
2019-02-05T07:03:23.951Z,87.05
2019-02-05T07:05:53.005Z,87.17
2019-02-05T07:08:22.096Z,87.60
2019-02-05T07:10:51.169Z,87.46
2019-02-05T07:13:20.244Z,87.13
2019-02-05T07:15:49.335Z,87.72
2019-02-05T07:18:18.668Z,87.53
2019-02-05T07:20:47.739Z,87.47
2019-02-05T07:23:16.787Z,87.75
2019-02-05T07:25:45.850Z,88.09
2019-02-05T07:28:14.894Z,88.21
2019-02-05T07:30:43.972Z,87.64
2019-02-05T07:33:13.039Z,87.60
2019-02-05T07:35:42.279Z,87.71
2019-02-05T07:38:11.370Z,87.72
2019-02-05T07:40:40.488Z,87.72
2019-02-05T07:43:09.599Z,87.43
2019-02-05T07:45:38.704Z,87.89
2019-02-05T07:48:07.761Z,88.30
2019-02-05T07:50:36.847Z,87.67
2019-02-05T07:53:06.408Z,87.99
2019-02-05T07:55:35.404Z,87.62
2019-02-05T07:58:04.565Z,87.22
2019-02-05T08:00:33.739Z,87.69
2019-02-05T08:03:02.799Z,87.46
2019-02-05T08:05:32.886Z,87.18
2019-02-05T08:08:02.146Z,87.51
2019-02-05T08:10:31.607Z,87.34
2019-02-05T08:13:00.677Z,87.30
2019-02-05T08:15:31.472Z,87.55
2019-02-05T08:18:00.561Z,87.84
2019-02-05T08:20:29.679Z,87.40
2019-02-05T08:22:58.757Z,87.34
2019-02-05T08:25:27.817Z,87.18
2019-02-05T08:27:56.942Z,87.45
2019-02-05T08:30:28.456Z,87.28
2019-02-05T08:32:57.599Z,86.94
2019-02-05T08:35:26.683Z,87.37
2019-02-05T08:37:55.819Z,87.61
2019-02-05T08:40:24.891Z,87.45
2019-02-05T08:42:53.994Z,87.44
2019-02-05T08:45:25.166Z,87.22
2019-02-05T08:47:54.268Z,87.21
2019-02-05T08:50:27.295Z,86.97
2019-02-05T08:52:55.801Z,86.68
2019-02-05T08:55:24.866Z,86.47
2019-02-05T08:57:55.497Z,86.29
2019-02-05T09:00:33.107Z,86.24
2019-02-05T09:03:02.189Z,86.38
2019-02-05T09:05:31.242Z,86.17
2019-02-05T09:08:00.303Z,86.60
2019-02-05T09:10:31.465Z,86.59
2019-02-05T09:13:00.563Z,86.06
2019-02-05T09:15:29.998Z,86.12
2019-02-05T09:17:59.094Z,85.85
2019-02-05T09:20:28.167Z,85.56
2019-02-05T09:22:57.214Z,85.19
2019-02-05T09:25:26.292Z,84.60
2019-02-05T09:27:55.389Z,84.19
2019-02-05T09:30:26.754Z,84.58
2019-02-05T09:32:57.099Z,84.18
2019-02-05T09:35:26.216Z,84.47
2019-02-05T09:37:57.742Z,85.23
2019-02-05T09:40:31.056Z,84.45
2019-02-05T09:43:00.264Z,84.57
2019-02-05T09:45:30.310Z,84.34
2019-02-05T09:47:59.442Z,84.30
2019-02-05T09:50:30.832Z,84.59
2019-02-05T09:52:59.301Z,84.73
2019-02-05T09:55:28.441Z,84.38
2019-02-05T09:57:57.590Z,84.34
2019-02-05T10:00:28.678Z,84.38
2019-02-05T10:02:58.039Z,84.39
2019-02-05T10:05:28.045Z,83.52
2019-02-05T10:07:57.100Z,83.61
2019-02-05T10:10:26.192Z,83.80
2019-02-05T10:12:55.316Z,83.36
2019-02-05T10:15:26.838Z,83.69
2019-02-05T10:17:55.932Z,83.75
2019-02-05T10:20:25.256Z,83.76
2019-02-05T10:22:55.974Z,83.26
2019-02-05T10:25:25.055Z,83.13
2019-02-05T10:27:54.182Z,83.80
2019-02-05T10:30:31.322Z,83.34
2019-02-05T10:33:02.111Z,83.51
2019-02-05T10:35:31.200Z,83.77
2019-02-05T10:38:00.297Z,83.37
2019-02-05T10:40:29.404Z,83.83
2019-02-05T10:42:58.526Z,83.15
2019-02-05T10:45:27.601Z,82.63
2019-02-05T10:47:56.679Z,82.72
2019-02-05T10:50:26.019Z,82.68
2019-02-05T10:52:55.097Z,82.31
2019-02-05T10:55:24.232Z,81.94
2019-02-05T10:57:53.388Z,82.13
2019-02-05T11:00:27.751Z,81.99
2019-02-05T11:02:57.710Z,82.66
2019-02-05T11:05:28.054Z,83.48
2019-02-05T11:07:57.182Z,82.61
2019-02-05T11:10:26.280Z,82.93
2019-02-05T11:12:55.306Z,82.22
2019-02-05T11:15:26.655Z,82.11
2019-02-05T11:17:55.741Z,81.14
2019-02-05T11:20:26.057Z,81.09
2019-02-05T11:22:55.240Z,81.01
2019-02-05T11:25:24.339Z,80.64
2019-02-05T11:27:53.413Z,79.82
2019-02-05T11:30:25.450Z,78.88
2019-02-05T11:32:54.546Z,79.16
2019-02-05T11:35:23.644Z,79.61
2019-02-05T11:37:52.974Z,79.27
2019-02-05T11:40:24.474Z,78.87
2019-02-05T11:42:53.593Z,77.18
2019-02-05T11:45:22.700Z,77.52
2019-02-05T11:47:51.821Z,77.79
2019-02-05T11:50:20.860Z,78.10
2019-02-05T11:52:50.444Z,77.32
2019-02-05T11:55:21.408Z,77.30
2019-02-05T11:57:50.456Z,76.68
2019-02-05T12:00:39.486Z,78.18
2019-02-05T12:03:09.262Z,77.07
2019-02-05T12:05:38.683Z,77.52
2019-02-05T12:08:07.751Z,77.75
2019-02-05T12:10:36.848Z,78.27
2019-02-05T12:13:06.002Z,78.60
2019-02-05T12:15:35.075Z,77.82
2019-02-05T12:18:04.180Z,77.81
2019-02-05T12:20:33.287Z,77.95
2019-02-05T12:23:02.658Z,77.52
2019-02-05T12:25:31.786Z,77.66
2019-02-05T12:28:00.826Z,77.37
2019-02-05T12:30:43.901Z,78.26
2019-02-05T12:33:02.104Z,77.30
2019-02-05T12:35:31.285Z,78.13
2019-02-05T12:38:00.397Z,78.04
2019-02-05T12:40:29.458Z,78.11
2019-02-05T12:42:58.581Z,77.97
2019-02-05T12:45:28.936Z,77.91
2019-02-05T12:47:58.086Z,78.33
2019-02-05T12:50:29.398Z,78.04
2019-02-05T12:52:58.518Z,78.22
2019-02-05T12:55:27.615Z,78.31
2019-02-05T12:57:57.432Z,78.31
2019-02-05T13:00:34.766Z,78.35
2019-02-05T13:03:03.985Z,78.27
2019-02-05T13:05:33.125Z,78.45
2019-02-05T13:08:05.301Z,78.35
2019-02-05T13:10:35.538Z,78.19
2019-02-05T13:13:05.298Z,78.07
2019-02-05T13:15:34.428Z,79.11
2019-02-05T13:18:03.542Z,78.75
2019-02-05T13:20:32.616Z,78.08
2019-02-05T13:23:01.734Z,77.94
2019-02-05T13:25:30.886Z,77.39
2019-02-05T13:28:00.014Z,77.66
2019-02-05T13:30:30.865Z,78.02
2019-02-05T13:32:59.942Z,78.08
2019-02-05T13:35:29.131Z,78.06
2019-02-05T13:37:58.235Z,78.42
2019-02-05T13:40:27.455Z,77.98
2019-02-05T13:42:56.627Z,77.88
2019-02-05T13:45:27.286Z,78.49
2019-02-05T13:47:56.387Z,78.36
2019-02-05T13:50:33.088Z,77.66
2019-02-05T13:52:57.331Z,77.64
2019-02-05T13:55:28.308Z,77.33
2019-02-05T13:57:57.429Z,77.37
2019-02-05T14:00:31.637Z,77.11
2019-02-05T14:03:00.802Z,77.95
2019-02-05T14:05:30.045Z,77.46
2019-02-05T14:07:59.192Z,77.23
2019-02-05T14:10:30.415Z,77.29
2019-02-05T14:12:59.682Z,76.73
2019-02-05T14:15:31.133Z,76.45
2019-02-05T14:18:00.273Z,77.49
2019-02-05T14:20:29.397Z,77.71
2019-02-05T14:22:58.475Z,77.77
2019-02-05T14:25:27.585Z,77.02
2019-02-05T14:27:56.773Z,76.71
2019-02-05T14:30:37.197Z,77.24
2019-02-05T14:33:06.648Z,76.57
2019-02-05T14:35:35.736Z,76.72
2019-02-05T14:38:05.437Z,76.69
2019-02-05T14:40:34.534Z,77.14
2019-02-05T14:43:03.723Z,77.20
2019-02-05T14:45:32.820Z,77.75
2019-02-05T14:48:02.233Z,77.70
2019-02-05T14:50:32.427Z,77.22
2019-02-05T14:53:01.556Z,78.10
2019-02-05T14:55:30.713Z,77.80
2019-02-05T14:57:59.820Z,77.61
2019-02-05T15:00:30.881Z,78.32
2019-02-05T15:03:02.175Z,78.42
2019-02-05T15:05:31.208Z,79.01
2019-02-05T15:08:00.410Z,78.57
2019-02-05T15:10:29.537Z,78.68
2019-02-05T15:12:58.612Z,78.81
2019-02-05T15:15:27.866Z,78.98
2019-02-05T15:17:57.048Z,78.41
2019-02-05T15:20:31.752Z,78.38
2019-02-05T15:23:00.855Z,78.56
2019-02-05T15:25:29.962Z,79.06
2019-02-05T15:27:59.204Z,78.75
2019-02-05T15:30:36.618Z,79.15
2019-02-05T15:33:24.602Z,78.97
2019-02-05T15:35:59.701Z,78.71
2019-02-05T15:38:29.113Z,79.50
2019-02-05T15:40:58.367Z,79.33
2019-02-05T15:43:27.512Z,79.57
2019-02-05T15:45:56.647Z,79.57
2019-02-05T15:48:28.378Z,79.74
2019-02-05T15:50:57.724Z,79.36
2019-02-05T15:53:27.581Z,80.02
2019-02-05T15:55:57.064Z,80.22
2019-02-05T15:58:26.294Z,79.99
2019-02-05T16:00:55.577Z,80.47
2019-02-05T16:03:24.832Z,79.90
2019-02-05T16:05:54.122Z,79.87
2019-02-05T16:08:23.731Z,79.73
2019-02-05T16:10:53.070Z,80.04
2019-02-05T16:13:24.584Z,79.82
2019-02-05T16:15:53.866Z,79.58
2019-02-05T16:18:23.184Z,79.80
2019-02-05T16:20:52.489Z,79.57
2019-02-05T16:23:21.974Z,79.08
2019-02-05T16:25:51.365Z,79.18
2019-02-05T16:28:20.641Z,78.62
2019-02-05T16:30:51.448Z,78.56
2019-02-05T16:33:20.817Z,78.67
2019-02-05T16:35:50.255Z,79.13
2019-02-05T16:38:20.059Z,79.69
2019-02-05T16:40:51.972Z,79.81
2019-02-05T16:43:21.227Z,79.89
2019-02-05T16:45:50.431Z,79.88
2019-02-05T16:48:19.661Z,79.88
2019-02-05T16:50:48.865Z,79.58
2019-02-05T16:53:18.027Z,80.41
2019-02-05T16:55:47.244Z,80.31
2019-02-05T16:58:16.428Z,80.20
2019-02-05T17:00:45.564Z,80.56
2019-02-05T17:03:14.692Z,79.75
2019-02-05T17:05:43.848Z,79.39
2019-02-05T17:08:13.141Z,79.91
2019-02-05T17:10:42.339Z,79.95
2019-02-05T17:13:11.984Z,79.75
2019-02-05T17:15:41.439Z,79.86
2019-02-05T17:18:10.634Z,80.05
2019-02-05T17:20:39.838Z,79.70
2019-02-05T17:23:09.283Z,79.73
2019-02-05T17:25:38.383Z,79.09
2019-02-05T17:28:07.554Z,79.13
2019-02-05T17:30:38.080Z,78.84
2019-02-05T17:33:07.271Z,79.32
2019-02-05T17:35:36.425Z,79.75
2019-02-05T17:38:07.278Z,79.03
2019-02-05T17:40:36.450Z,78.33
2019-02-05T17:43:05.629Z,78.08
2019-02-05T17:45:36.831Z,78.40
2019-02-05T17:48:09.362Z,78.48
2019-02-05T17:50:38.497Z,77.96
2019-02-05T17:53:07.616Z,78.04
2019-02-05T17:55:36.790Z,77.91
2019-02-05T17:58:06.026Z,77.39
2019-02-05T18:00:42.003Z,77.52
2019-02-05T18:03:11.157Z,77.91
2019-02-05T18:05:40.621Z,78.21
2019-02-05T18:08:09.729Z,77.91
2019-02-05T18:10:41.681Z,77.92
2019-02-05T18:13:09.820Z,77.89
2019-02-05T18:15:39.044Z,78.11
2019-02-05T18:18:08.149Z,78.33
2019-02-05T18:20:37.621Z,77.86
2019-02-05T18:24:21.924Z,77.41
2019-02-05T18:26:51.145Z,77.93
2019-02-05T18:29:20.350Z,78.10
2019-02-05T18:31:49.651Z,78.24
2019-02-05T18:34:18.847Z,78.11
2019-02-05T18:36:51.002Z,77.57
2019-02-05T18:39:20.215Z,77.94
2019-02-05T18:41:49.424Z,77.52
2019-02-05T18:44:18.617Z,77.92
2019-02-05T18:46:47.796Z,77.28
2019-02-05T18:49:17.391Z,77.24
2019-02-05T18:52:26.113Z,77.72
2019-02-05T18:55:05.786Z,77.72
2019-02-05T18:57:34.943Z,77.39
2019-02-05T19:00:07.499Z,77.47
2019-02-05T19:02:36.874Z,77.63
2019-02-05T19:05:06.604Z,78.10
2019-02-05T19:07:35.939Z,78.06
2019-02-05T19:10:05.856Z,78.05
2019-02-05T19:12:35.188Z,78.25
2019-02-05T19:15:10.066Z,77.95
2019-02-05T19:17:39.367Z,78.16
2019-02-05T19:20:08.696Z,78.22
2019-02-05T19:22:38.485Z,77.75
2019-02-05T19:25:18.304Z,78.47
2019-02-05T19:27:47.423Z,78.27
2019-02-05T19:30:20.052Z,79.02
2019-02-05T19:32:49.248Z,79.25
2019-02-05T19:35:18.803Z,79.66
2019-02-05T19:37:47.978Z,80.34
2019-02-05T19:41:29.303Z,80.77
2019-02-05T19:44:31.873Z,80.50
2019-02-05T19:47:34.891Z,81.13
2019-02-05T19:50:32.063Z,81.27
2019-02-05T19:53:31.662Z,81.82
2019-02-05T19:56:38.062Z,81.44
2019-02-05T20:19:55.676Z,81.90
2019-02-05T20:22:34.324Z,81.96
2019-02-05T20:25:03.969Z,82.07
2019-02-05T20:27:33.270Z,82.69
2019-02-05T20:30:02.425Z,82.69
2019-02-05T20:32:31.676Z,83.10
2019-02-05T20:35:00.861Z,83.33
2019-02-05T20:37:34.153Z,82.68
2019-02-05T20:40:03.425Z,82.43
2019-02-05T20:42:33.696Z,81.83
2019-02-05T20:45:03.013Z,81.93
2019-02-05T20:47:32.293Z,82.10
2019-02-05T20:50:01.499Z,82.43
2019-02-05T20:52:33.677Z,82.49
2019-02-05T20:55:02.976Z,82.67
2019-02-05T20:57:32.627Z,82.37
2019-02-05T21:00:01.799Z,81.97
2019-02-05T21:02:31.285Z,81.82
2019-02-05T21:05:00.652Z,81.92
2019-02-05T21:07:30.016Z,81.79
2019-02-05T21:09:59.322Z,81.85
2019-02-05T21:12:28.570Z,82.02
2019-02-05T21:14:58.003Z,82.05
2019-02-05T21:17:28.395Z,81.71
2019-02-05T21:19:57.638Z,81.76
2019-02-05T21:22:26.833Z,81.69
2019-02-05T21:24:56.127Z,81.76
2019-02-05T21:27:25.231Z,81.96
2019-02-05T21:29:54.824Z,81.79
2019-02-05T21:32:24.096Z,82.03
2019-02-05T21:34:53.272Z,82.03
2019-02-05T21:37:22.495Z,82.11
2019-02-05T21:40:02.052Z,82.25
2019-02-05T21:42:22.445Z,82.45
2019-02-05T21:44:51.877Z,82.40
2019-02-05T21:47:20.988Z,82.34
2019-02-05T21:49:50.105Z,82.26
2019-02-05T21:52:19.224Z,82.50
2019-02-05T21:54:48.301Z,83.03
2019-02-05T21:57:17.449Z,83.49
2019-02-05T21:59:46.522Z,83.33
2019-02-05T22:02:15.868Z,83.79
2019-02-05T22:04:45.006Z,84.24
2019-02-05T22:07:14.165Z,84.16
2019-02-05T22:09:43.431Z,84.47
2019-02-05T22:12:12.508Z,84.32
2019-02-05T22:14:41.630Z,84.49
2019-02-05T22:17:10.999Z,84.39
2019-02-05T22:19:40.048Z,84.36
2019-02-05T22:22:09.136Z,84.39
2019-02-05T22:24:38.354Z,84.62
2019-02-05T22:27:07.820Z,84.83
2019-02-05T22:29:36.907Z,85.01
2019-02-05T22:32:06.077Z,84.99
2019-02-05T22:34:39.393Z,84.67
2019-02-05T22:37:05.999Z,84.62
2019-02-05T22:39:35.534Z,84.86
2019-02-05T22:42:04.621Z,84.58
2019-02-05T22:44:33.664Z,84.64
2019-02-05T22:47:02.792Z,84.47
2019-02-05T22:49:31.862Z,84.64
2019-02-05T22:52:00.954Z,84.81
2019-02-05T22:54:29.996Z,84.84
2019-02-05T22:56:59.103Z,84.71
2019-02-05T22:59:28.553Z,85.06
2019-02-05T23:01:59.923Z,85.14
2019-02-05T23:04:56.345Z,85.20
2019-02-05T23:07:27.338Z,85.19
2019-02-05T23:10:20.653Z,85.34
2019-02-05T23:12:51.609Z,85.72
2019-02-05T23:15:25.416Z,85.61
2019-02-05T23:17:56.972Z,85.52
2019-02-05T23:20:26.042Z,85.42
2019-02-05T23:22:57.140Z,85.30
2019-02-05T23:25:25.983Z,85.06
2019-02-05T23:27:55.105Z,85.05
2019-02-05T23:30:28.870Z,84.83
2019-02-05T23:32:58.418Z,84.82
2019-02-05T23:35:27.867Z,84.94
2019-02-05T23:37:56.931Z,85.08
2019-02-05T23:40:26.019Z,84.85
2019-02-05T23:42:55.065Z,84.56
2019-02-05T23:45:24.157Z,84.35
2019-02-05T23:47:53.212Z,83.96
2019-02-05T23:50:22.635Z,83.77
2019-02-05T23:52:51.700Z,83.72
2019-02-05T23:55:20.779Z,83.60
2019-02-05T23:57:49.846Z,83.39
